createdAt,value
2023-03-22T00:00:38.670Z,44.60
2023-03-22T00:03:07.484Z,36.70
2023-03-22T00:05:37.621Z,42.00
2023-03-22T00:08:25.548Z,41.00
2023-03-22T00:10:55.747Z,36.10
2023-03-22T00:13:25.833Z,38.40
2023-03-22T00:15:55.604Z,37.20
2023-03-22T00:18:30.562Z,36.20
2023-03-22T00:20:59.596Z,44.20
2023-03-22T00:23:28.553Z,45.90
2023-03-22T00:25:56.906Z,46.90
2023-03-22T00:28:24.998Z,47.80
2023-03-22T00:30:59.029Z,46.80
2023-03-22T00:33:29.681Z,45.00
2023-03-22T00:35:59.636Z,49.80
2023-03-22T00:38:41.960Z,40.20
2023-03-22T00:41:18.775Z,48.40
2023-03-22T00:43:48.546Z,45.70
2023-03-22T00:46:19.321Z,46.50
2023-03-22T00:48:48.739Z,47.70
2023-03-22T00:51:16.926Z,44.00
2023-03-22T00:53:45.461Z,53.90
2023-03-22T00:56:15.915Z,45.40
2023-03-22T00:58:48.329Z,36.20
2023-03-22T01:01:17.551Z,44.50
2023-03-22T01:03:50.785Z,42.50
2023-03-22T01:06:19.084Z,51.60
2023-03-22T01:08:50.994Z,48.70
2023-03-22T01:11:21.843Z,37.30
2023-03-22T01:13:50.480Z,41.40
2023-03-22T01:16:18.969Z,43.70
2023-03-22T01:18:47.155Z,37.50
2023-03-22T01:21:15.468Z,48.80
2023-03-22T01:23:43.576Z,47.10
2023-03-22T01:26:11.745Z,44.60
2023-03-22T01:28:40.755Z,47.00
2023-03-22T01:31:08.856Z,46.80
2023-03-22T01:33:37.930Z,45.30
2023-03-22T01:36:06.958Z,45.30
2023-03-22T01:38:35.797Z,41.00
2023-03-22T01:41:04.162Z,46.70
2023-03-22T01:43:35.402Z,42.40
2023-03-22T01:46:04.450Z,48.40
2023-03-22T01:48:42.359Z,44.10
2023-03-22T01:51:13.770Z,47.80
2023-03-22T01:54:07.031Z,42.70
2023-03-22T01:56:36.860Z,44.40
2023-03-22T01:59:05.581Z,48.60
2023-03-22T02:01:52.907Z,46.10
2023-03-22T02:04:23.504Z,42.80
2023-03-22T02:06:54.153Z,44.10
2023-03-22T02:09:22.395Z,45.00
2023-03-22T02:11:59.653Z,40.10
2023-03-22T02:14:37.619Z,39.90
2023-03-22T02:18:57.882Z,43.30
2023-03-22T02:21:52.452Z,47.00
2023-03-22T02:24:49.613Z,43.10
2023-03-22T02:27:20.765Z,49.20
2023-03-22T02:29:56.545Z,47.50
2023-03-22T02:32:52.579Z,46.90
2023-03-22T02:36:07.449Z,39.40
2023-03-22T02:39:16.044Z,41.10
2023-03-22T02:42:15.859Z,49.40
2023-03-22T02:44:50.633Z,47.00
2023-03-22T02:47:49.854Z,45.80
2023-03-22T02:50:46.664Z,47.20
2023-03-22T02:53:21.151Z,44.70
2023-03-22T02:55:54.254Z,43.00
2023-03-22T02:58:38.162Z,52.60
2023-03-22T03:01:09.475Z,45.70
2023-03-22T03:03:37.799Z,47.30
2023-03-22T03:06:10.085Z,50.70
2023-03-22T03:08:38.392Z,47.70
2023-03-22T03:11:10.945Z,46.80
2023-03-22T03:13:40.476Z,52.70
2023-03-22T03:16:13.280Z,49.40
2023-03-22T03:18:55.123Z,47.00
2023-03-22T03:21:45.430Z,45.70
2023-03-22T03:24:28.655Z,46.70
2023-03-22T03:27:04.572Z,46.00
2023-03-22T03:29:40.358Z,46.70
2023-03-22T03:32:31.678Z,46.40
2023-03-22T03:35:22.427Z,44.40
2023-03-22T03:38:21.772Z,47.00
2023-03-22T03:40:53.838Z,48.30
2023-03-22T03:43:23.275Z,47.40
2023-03-22T03:45:53.390Z,47.40
2023-03-22T03:48:23.576Z,45.50
2023-03-22T03:50:52.537Z,46.50
2023-03-22T03:53:20.923Z,40.70
2023-03-22T03:55:49.096Z,36.20
2023-03-22T03:58:17.710Z,44.20
2023-03-22T04:00:47.010Z,44.80
2023-03-22T04:03:21.025Z,45.50
2023-03-22T04:06:18.386Z,42.80
2023-03-22T04:08:53.905Z,49.90
2023-03-22T04:11:27.491Z,36.30
2023-03-22T04:13:58.080Z,48.00
2023-03-22T04:16:26.499Z,44.10
2023-03-22T04:18:55.393Z,42.60
2023-03-22T04:21:23.828Z,44.10
2023-03-22T04:23:59.462Z,42.80
2023-03-22T04:26:29.490Z,28.70
2023-03-22T04:29:18.377Z,39.10
2023-03-22T04:31:56.325Z,36.60
2023-03-22T04:34:29.843Z,35.40
2023-03-22T04:37:03.858Z,37.40
2023-03-22T04:39:34.696Z,38.60
2023-03-22T04:42:21.719Z,38.30
2023-03-22T04:44:53.664Z,45.80
2023-03-22T04:47:22.345Z,37.50
2023-03-22T04:49:50.418Z,38.10
2023-03-22T04:52:19.038Z,40.40
2023-03-22T04:54:52.683Z,32.30
2023-03-22T04:57:21.419Z,41.20
2023-03-22T04:59:50.078Z,39.60
2023-03-22T05:02:19.070Z,43.50
2023-03-22T05:04:49.031Z,40.10
2023-03-22T05:07:29.926Z,42.90
2023-03-22T05:09:59.768Z,40.20
2023-03-22T05:12:28.573Z,35.60
2023-03-22T05:15:14.397Z,37.30
2023-03-22T05:17:43.880Z,37.60
2023-03-22T05:20:11.917Z,32.90
2023-03-22T05:22:42.253Z,36.00
2023-03-22T05:25:11.885Z,37.50
2023-03-22T05:27:42.889Z,27.40
2023-03-22T05:30:31.240Z,29.50
2023-03-22T05:33:04.539Z,33.30
2023-03-22T05:35:38.559Z,31.10
2023-03-22T05:40:39.934Z,33.50
2023-03-22T05:43:08.390Z,31.80
2023-03-22T05:45:40.310Z,29.10
2023-03-22T05:48:15.731Z,31.10
2023-03-22T05:50:44.216Z,28.10
2023-03-22T05:53:13.663Z,30.30
2023-03-22T05:55:50.101Z,27.20
2023-03-22T05:58:24.295Z,26.70
2023-03-22T06:00:52.560Z,28.50
2023-03-22T06:03:27.426Z,29.50
2023-03-22T06:06:13.843Z,26.70
2023-03-22T06:08:47.554Z,25.70
2023-03-22T06:11:23.160Z,25.80
2023-03-22T06:13:51.485Z,25.80
2023-03-22T06:16:20.518Z,24.40
2023-03-22T06:18:49.386Z,22.80
2023-03-22T06:21:18.029Z,25.10
2023-03-22T06:23:46.840Z,26.20
2023-03-22T06:26:19.299Z,21.60
2023-03-22T06:28:47.838Z,25.30
2023-03-22T06:31:16.693Z,24.40
2023-03-22T06:33:57.940Z,26.00
2023-03-22T06:36:30.371Z,24.30
2023-03-22T06:39:14.068Z,23.90
2023-03-22T06:41:45.949Z,24.90
2023-03-22T06:44:14.442Z,19.40
2023-03-22T06:46:51.352Z,22.90
2023-03-22T06:49:44.183Z,23.90
2023-03-22T06:52:16.878Z,22.10
2023-03-22T06:54:45.412Z,20.60
2023-03-22T06:57:13.428Z,22.60
2023-03-22T06:59:41.566Z,21.10
2023-03-22T07:02:13.789Z,22.10
2023-03-22T07:04:46.665Z,24.90
2023-03-22T07:07:15.999Z,21.30
2023-03-22T07:09:44.018Z,18.80
2023-03-22T07:12:13.492Z,18.00
2023-03-22T07:14:42.414Z,18.60
2023-03-22T07:17:32.520Z,16.50
2023-03-22T07:20:02.250Z,19.00
2023-03-22T07:22:31.364Z,19.70
2023-03-22T07:25:01.869Z,17.60
2023-03-22T07:27:50.858Z,16.60
2023-03-22T07:30:21.305Z,20.50
2023-03-22T07:32:50.071Z,16.80
2023-03-22T07:35:19.103Z,19.00
2023-03-22T07:37:48.870Z,18.10
2023-03-22T07:40:26.179Z,20.10
2023-03-22T07:42:56.273Z,20.60
2023-03-22T07:45:43.156Z,16.80
2023-03-22T07:48:49.855Z,17.80
2023-03-22T07:51:38.200Z,14.20
2023-03-22T07:54:07.805Z,13.30
2023-03-22T07:56:36.546Z,14.00
2023-03-22T07:59:05.327Z,12.60
2023-03-22T08:01:33.886Z,15.10
2023-03-22T08:04:08.433Z,16.40
2023-03-22T08:06:58.762Z,16.80
2023-03-22T08:09:28.919Z,14.40
2023-03-22T08:11:58.400Z,13.70
2023-03-22T08:14:36.049Z,16.10
2023-03-22T08:17:07.831Z,13.50
2023-03-22T08:19:36.961Z,14.50
2023-03-22T08:22:08.118Z,11.60
2023-03-22T08:24:59.428Z,15.20
2023-03-22T08:27:31.767Z,11.90
2023-03-22T08:30:01.091Z,12.70
2023-03-22T08:32:29.418Z,11.60
2023-03-22T08:34:58.912Z,13.10
2023-03-22T08:37:27.117Z,13.60
2023-03-22T08:39:55.424Z,12.60
2023-03-22T08:42:38.517Z,11.70
2023-03-22T08:45:10.385Z,13.60
2023-03-22T08:47:44.483Z,10.90
2023-03-22T08:50:13.453Z,10.50
2023-03-22T08:52:49.053Z,10.80
2023-03-22T08:55:24.948Z,12.50
2023-03-22T08:58:22.102Z,11.00
2023-03-22T09:01:29.066Z,11.50
2023-03-22T09:04:04.123Z,10.30
2023-03-22T09:06:32.562Z,8.60
2023-03-22T09:09:03.825Z,14.70
2023-03-22T09:11:35.482Z,12.30
2023-03-22T09:14:03.660Z,10.40
2023-03-22T09:16:39.249Z,8.60
2023-03-22T09:19:07.999Z,8.50
2023-03-22T09:21:36.491Z,10.60
2023-03-22T09:24:21.728Z,17.60
2023-03-22T09:26:53.975Z,11.10
2023-03-22T09:29:22.450Z,10.90
2023-03-22T09:34:28.926Z,10.40
2023-03-22T09:37:02.515Z,9.70
2023-03-22T09:39:38.570Z,9.90
2023-03-22T09:42:10.994Z,12.50
2023-03-22T09:44:41.706Z,10.10
2023-03-22T09:49:53.823Z,10.00
2023-03-22T09:52:22.762Z,9.90
2023-03-22T09:54:52.851Z,14.30
2023-03-22T09:57:36.561Z,8.50
2023-03-22T10:00:27.488Z,13.30
2023-03-22T10:02:57.316Z,9.00
2023-03-22T10:05:27.703Z,8.20
2023-03-22T10:08:17.820Z,7.80
2023-03-22T10:10:46.996Z,8.90
2023-03-22T10:13:33.211Z,7.30
2023-03-22T10:16:06.939Z,7.00
2023-03-22T10:18:40.636Z,7.60
2023-03-22T10:21:15.863Z,8.70
2023-03-22T10:23:44.213Z,7.80
2023-03-22T10:26:29.475Z,7.10
2023-03-22T10:29:04.625Z,6.40
2023-03-22T10:31:33.139Z,6.60
2023-03-22T10:34:33.691Z,7.50
2023-03-22T10:37:02.297Z,9.30
2023-03-22T10:39:34.096Z,8.60
2023-03-22T10:42:08.136Z,7.80
2023-03-22T10:44:48.224Z,8.50
2023-03-22T10:47:18.398Z,8.30
2023-03-22T10:49:54.626Z,6.00
2023-03-22T10:53:05.940Z,7.30
2023-03-22T10:55:39.716Z,6.50
2023-03-22T10:58:22.365Z,5.50
2023-03-22T11:00:53.158Z,7.40
2023-03-22T11:03:36.997Z,8.50
2023-03-22T11:06:13.585Z,6.20
2023-03-22T11:08:43.696Z,5.20
2023-03-22T11:11:32.650Z,10.10
2023-03-22T11:14:06.105Z,4.40
2023-03-22T11:16:46.567Z,5.20
2023-03-22T11:19:17.452Z,6.10
2023-03-22T11:21:46.881Z,6.50
2023-03-22T11:24:15.747Z,4.50
2023-03-22T11:27:03.368Z,6.60
2023-03-22T11:29:46.488Z,4.30
2023-03-22T11:32:37.311Z,14.60
2023-03-22T11:35:18.583Z,5.40
2023-03-22T11:37:48.746Z,4.00
2023-03-22T11:40:21.851Z,6.10
2023-03-22T11:42:54.051Z,6.80
2023-03-22T11:45:30.864Z,7.40
2023-03-22T11:48:06.845Z,5.70
2023-03-22T11:50:36.891Z,21.50
2023-03-22T11:53:09.064Z,5.40
2023-03-22T11:55:37.961Z,6.00
2023-03-22T11:58:27.154Z,3.50
2023-03-22T12:00:58.880Z,5.30
2023-03-22T12:03:31.465Z,5.00
2023-03-22T12:06:04.620Z,4.50
2023-03-22T12:08:42.822Z,3.50
2023-03-22T12:11:33.710Z,4.70
2023-03-22T12:14:23.836Z,4.70
2023-03-22T12:16:59.983Z,3.70
2023-03-22T12:19:48.778Z,4.70
2023-03-22T12:22:18.878Z,3.50
2023-03-22T12:24:46.845Z,4.10
2023-03-22T12:27:30.877Z,4.30
2023-03-22T12:30:01.494Z,5.30
2023-03-22T12:32:36.265Z,3.50
2023-03-22T12:35:19.643Z,5.50
2023-03-22T12:37:50.115Z,5.00
2023-03-22T12:40:24.562Z,5.10
2023-03-22T12:43:00.263Z,5.10
2023-03-22T12:45:39.589Z,3.90
2023-03-22T12:48:15.560Z,2.40
2023-03-22T12:50:58.421Z,4.70
2023-03-22T12:53:28.384Z,3.70
2023-03-22T12:55:56.259Z,3.70
2023-03-22T12:58:24.950Z,5.20
2023-03-22T13:00:56.133Z,4.40
2023-03-22T13:06:03.551Z,4.70
2023-03-22T13:09:01.312Z,8.60
2023-03-22T13:11:32.046Z,4.80
2023-03-22T13:14:00.201Z,4.20
2023-03-22T13:16:49.239Z,4.00
2023-03-22T13:19:52.201Z,6.30
2023-03-22T13:22:28.527Z,4.50
2023-03-22T13:24:59.259Z,7.30
2023-03-22T13:27:38.290Z,7.20
2023-03-22T13:30:22.018Z,6.20
2023-03-22T13:33:04.492Z,4.50
2023-03-22T13:35:51.325Z,5.10
2023-03-22T13:38:19.674Z,4.90
2023-03-22T13:40:52.223Z,4.50
2023-03-22T13:43:24.453Z,5.10
2023-03-22T13:46:18.091Z,3.00
2023-03-22T13:48:47.283Z,3.50
2023-03-22T13:51:23.586Z,4.40
2023-03-22T13:54:09.911Z,3.20
2023-03-22T13:56:44.715Z,2.70
2023-03-22T13:59:33.670Z,4.60
2023-03-22T14:02:28.772Z,3.50
2023-03-22T14:05:16.457Z,3.40
2023-03-22T14:07:50.830Z,6.00
2023-03-22T14:10:24.801Z,4.20
2023-03-22T14:13:16.578Z,3.70
2023-03-22T14:15:49.985Z,3.40
2023-03-22T14:18:34.285Z,5.50
2023-03-22T14:21:07.326Z,4.60
